sensor_id;sensor_type;location;lat;lon;timestamp;temperature;humidity
30983;DHT22;17660;52.578;13.288;2023-02-14T00:00:47;7.30;99.90
30983;DHT22;17660;52.578;13.288;2023-02-14T00:03:14;7.30;99.90
30983;DHT22;17660;52.578;13.288;2023-02-14T00:05:40;7.30;99.90
30983;DHT22;17660;52.578;13.288;2023-02-14T00:08:07;7.40;99.90
30983;DHT22;17660;52.578;13.288;2023-02-14T00:10:34;7.40;99.90
30983;DHT22;17660;52.578;13.288;2023-02-14T00:13:00;7.30;99.90
30983;DHT22;17660;52.578;13.288;2023-02-14T00:15:27;7.30;99.90
30983;DHT22;17660;52.578;13.288;2023-02-14T00:17:56;7.40;99.90
30983;DHT22;17660;52.578;13.288;2023-02-14T00:20:26;7.40;99.90
30983;DHT22;17660;52.578;13.288;2023-02-14T00:22:53;7.40;99.90
30983;DHT22;17660;52.578;13.288;2023-02-14T00:25:20;7.40;99.90
30983;DHT22;17660;52.578;13.288;2023-02-14T00:27:47;7.40;99.90
30983;DHT22;17660;52.578;13.288;2023-02-14T00:30:13;7.30;99.90
30983;DHT22;17660;52.578;13.288;2023-02-14T00:32:41;7.40;99.90
30983;DHT22;17660;52.578;13.288;2023-02-14T00:35:09;7.40;99.90
30983;DHT22;17660;52.578;13.288;2023-02-14T00:37:36;7.40;99.90
30983;DHT22;17660;52.578;13.288;2023-02-14T00:40:03;7.30;99.90
30983;DHT22;17660;52.578;13.288;2023-02-14T00:42:30;7.30;99.90
30983;DHT22;17660;52.578;13.288;2023-02-14T00:44:57;7.30;99.90
30983;DHT22;17660;52.578;13.288;2023-02-14T00:47:24;7.20;99.90
30983;DHT22;17660;52.578;13.288;2023-02-14T00:49:51;7.30;99.90
30983;DHT22;17660;52.578;13.288;2023-02-14T00:52:18;7.30;99.90
30983;DHT22;17660;52.578;13.288;2023-02-14T00:54:44;7.30;99.90
30983;DHT22;17660;52.578;13.288;2023-02-14T00:57:11;7.30;99.90
30983;DHT22;17660;52.578;13.288;2023-02-14T00:59:38;7.30;99.90
30983;DHT22;17660;52.578;13.288;2023-02-14T01:02:05;7.20;99.90
30983;DHT22;17660;52.578;13.288;2023-02-14T01:04:32;7.20;99.90
30983;DHT22;17660;52.578;13.288;2023-02-14T01:06:58;7.10;99.90
30983;DHT22;17660;52.578;13.288;2023-02-14T01:09:25;7.20;99.90
30983;DHT22;17660;52.578;13.288;2023-02-14T01:11:52;7.20;99.90
30983;DHT22;17660;52.578;13.288;2023-02-14T01:14:19;7.20;99.90
30983;DHT22;17660;52.578;13.288;2023-02-14T01:16:45;7.20;99.90
30983;DHT22;17660;52.578;13.288;2023-02-14T01:19:12;7.20;99.90
30983;DHT22;17660;52.578;13.288;2023-02-14T01:21:40;7.30;99.90
30983;DHT22;17660;52.578;13.288;2023-02-14T01:24:07;7.20;99.90
30983;DHT22;17660;52.578;13.288;2023-02-14T01:26:34;7.20;99.90
30983;DHT22;17660;52.578;13.288;2023-02-14T01:29:03;7.10;99.90
30983;DHT22;17660;52.578;13.288;2023-02-14T01:31:32;7.20;99.90
30983;DHT22;17660;52.578;13.288;2023-02-14T01:33:59;7.20;99.90
30983;DHT22;17660;52.578;13.288;2023-02-14T01:36:30;7.20;99.90
30983;DHT22;17660;52.578;13.288;2023-02-14T01:39:00;7.20;99.90
30983;DHT22;17660;52.578;13.288;2023-02-14T01:41:30;7.20;99.90
30983;DHT22;17660;52.578;13.288;2023-02-14T01:46:34;7.20;99.90
30983;DHT22;17660;52.578;13.288;2023-02-14T01:49:07;7.20;99.90
30983;DHT22;17660;52.578;13.288;2023-02-14T01:51:39;7.20;99.90
30983;DHT22;17660;52.578;13.288;2023-02-14T01:54:07;7.20;99.90
30983;DHT22;17660;52.578;13.288;2023-02-14T01:56:42;7.10;99.90
30983;DHT22;17660;52.578;13.288;2023-02-14T01:59:15;7.10;99.90
30983;DHT22;17660;52.578;13.288;2023-02-14T02:01:44;7.10;99.90
30983;DHT22;17660;52.578;13.288;2023-02-14T02:04:17;7.20;99.90
30983;DHT22;17660;52.578;13.288;2023-02-14T02:06:54;7.20;99.90
30983;DHT22;17660;52.578;13.288;2023-02-14T02:09:45;7.20;99.90
30983;DHT22;17660;52.578;13.288;2023-02-14T02:12:12;7.20;99.90
30983;DHT22;17660;52.578;13.288;2023-02-14T02:14:39;7.20;99.90
30983;DHT22;17660;52.578;13.288;2023-02-14T02:17:25;7.20;99.90
30983;DHT22;17660;52.578;13.288;2023-02-14T02:28:09;7.10;99.90
30983;DHT22;17660;52.578;13.288;2023-02-14T02:39:11;7.10;99.90
30983;DHT22;17660;52.578;13.288;2023-02-14T02:41:54;7.10;99.90
30983;DHT22;17660;52.578;13.288;2023-02-14T02:50:33;7.10;99.90
30983;DHT22;17660;52.578;13.288;2023-02-14T02:56:15;7.20;99.90
30983;DHT22;17660;52.578;13.288;2023-02-14T02:59:09;7.20;99.90
30983;DHT22;17660;52.578;13.288;2023-02-14T03:02:36;7.20;99.90
30983;DHT22;17660;52.578;13.288;2023-02-14T03:04:39;7.20;99.90
30983;DHT22;17660;52.578;13.288;2023-02-14T03:07:33;7.10;99.90
30983;DHT22;17660;52.578;13.288;2023-02-14T03:20:59;7.20;99.90
30983;DHT22;17660;52.578;13.288;2023-02-14T03:23:30;7.10;99.90
30983;DHT22;17660;52.578;13.288;2023-02-14T03:26:11;7.10;99.90
30983;DHT22;17660;52.578;13.288;2023-02-14T03:29:00;7.00;99.90
30983;DHT22;17660;52.578;13.288;2023-02-14T03:39:50;7.00;99.90
30983;DHT22;17660;52.578;13.288;2023-02-14T03:42:22;6.90;99.90
30983;DHT22;17660;52.578;13.288;2023-02-14T03:44:52;6.90;99.90
30983;DHT22;17660;52.578;13.288;2023-02-14T03:47:23;6.90;99.90
30983;DHT22;17660;52.578;13.288;2023-02-14T03:50:03;7.00;99.90
30983;DHT22;17660;52.578;13.288;2023-02-14T03:52:33;6.90;99.90
30983;DHT22;17660;52.578;13.288;2023-02-14T03:55:02;6.90;99.90
30983;DHT22;17660;52.578;13.288;2023-02-14T04:00:09;6.90;99.90
30983;DHT22;17660;52.578;13.288;2023-02-14T04:02:42;6.90;99.90
30983;DHT22;17660;52.578;13.288;2023-02-14T04:05:13;6.80;99.90
30983;DHT22;17660;52.578;13.288;2023-02-14T04:07:46;6.80;99.90
30983;DHT22;17660;52.578;13.288;2023-02-14T04:10:14;6.90;99.90
30983;DHT22;17660;52.578;13.288;2023-02-14T04:12:41;6.80;99.90
30983;DHT22;17660;52.578;13.288;2023-02-14T04:15:09;6.80;99.90
30983;DHT22;17660;52.578;13.288;2023-02-14T04:17:36;6.80;99.90
30983;DHT22;17660;52.578;13.288;2023-02-14T04:20:21;6.90;99.90
30983;DHT22;17660;52.578;13.288;2023-02-14T04:22:48;6.90;99.90
30983;DHT22;17660;52.578;13.288;2023-02-14T04:25:17;6.80;99.90
30983;DHT22;17660;52.578;13.288;2023-02-14T04:27:44;6.90;99.90
30983;DHT22;17660;52.578;13.288;2023-02-14T04:30:12;6.90;99.90
30983;DHT22;17660;52.578;13.288;2023-02-14T04:32:40;6.90;99.90
30983;DHT22;17660;52.578;13.288;2023-02-14T04:35:07;6.90;99.90
30983;DHT22;17660;52.578;13.288;2023-02-14T04:37:34;6.90;99.90
30983;DHT22;17660;52.578;13.288;2023-02-14T04:40:01;6.90;99.90
30983;DHT22;17660;52.578;13.288;2023-02-14T04:42:28;6.90;99.90
30983;DHT22;17660;52.578;13.288;2023-02-14T04:44:55;6.90;99.90
30983;DHT22;17660;52.578;13.288;2023-02-14T04:47:21;6.90;99.90
30983;DHT22;17660;52.578;13.288;2023-02-14T04:49:48;6.90;99.90
30983;DHT22;17660;52.578;13.288;2023-02-14T04:52:15;7.00;99.90
30983;DHT22;17660;52.578;13.288;2023-02-14T04:54:43;7.00;99.90
30983;DHT22;17660;52.578;13.288;2023-02-14T04:57:09;7.00;99.90
30983;DHT22;17660;52.578;13.288;2023-02-14T04:59:36;6.90;99.90
30983;DHT22;17660;52.578;13.288;2023-02-14T05:02:03;7.00;99.90
30983;DHT22;17660;52.578;13.288;2023-02-14T05:04:30;7.00;99.90
30983;DHT22;17660;52.578;13.288;2023-02-14T05:06:57;7.00;99.90
30983;DHT22;17660;52.578;13.288;2023-02-14T05:09:23;7.00;99.90
30983;DHT22;17660;52.578;13.288;2023-02-14T05:11:50;7.00;99.90
30983;DHT22;17660;52.578;13.288;2023-02-14T05:14:17;7.00;99.90
30983;DHT22;17660;52.578;13.288;2023-02-14T05:16:43;7.00;99.90
30983;DHT22;17660;52.578;13.288;2023-02-14T05:19:10;7.00;99.90
30983;DHT22;17660;52.578;13.288;2023-02-14T05:21:37;6.90;99.90
30983;DHT22;17660;52.578;13.288;2023-02-14T05:24:04;6.90;99.90
30983;DHT22;17660;52.578;13.288;2023-02-14T05:26:31;6.80;99.90
30983;DHT22;17660;52.578;13.288;2023-02-14T05:28:58;6.90;99.90
30983;DHT22;17660;52.578;13.288;2023-02-14T05:31:25;6.90;99.90
30983;DHT22;17660;52.578;13.288;2023-02-14T05:33:51;7.00;99.90
30983;DHT22;17660;52.578;13.288;2023-02-14T05:36:18;6.90;99.90
30983;DHT22;17660;52.578;13.288;2023-02-14T05:38:45;6.90;99.90
30983;DHT22;17660;52.578;13.288;2023-02-14T05:41:12;6.80;99.90
30983;DHT22;17660;52.578;13.288;2023-02-14T05:43:39;6.80;99.90
30983;DHT22;17660;52.578;13.288;2023-02-14T05:46:05;6.80;99.90
30983;DHT22;17660;52.578;13.288;2023-02-14T05:48:33;6.80;99.90
30983;DHT22;17660;52.578;13.288;2023-02-14T05:51:07;6.80;99.90
30983;DHT22;17660;52.578;13.288;2023-02-14T05:53:34;6.80;99.90
30983;DHT22;17660;52.578;13.288;2023-02-14T05:56:02;6.80;99.90
30983;DHT22;17660;52.578;13.288;2023-02-14T05:58:29;6.80;99.90
30983;DHT22;17660;52.578;13.288;2023-02-14T06:00:56;6.80;99.90
30983;DHT22;17660;52.578;13.288;2023-02-14T06:03:24;6.80;99.90
30983;DHT22;17660;52.578;13.288;2023-02-14T06:05:51;6.80;99.90
30983;DHT22;17660;52.578;13.288;2023-02-14T06:08:18;6.90;99.90
30983;DHT22;17660;52.578;13.288;2023-02-14T06:10:45;6.80;99.90
30983;DHT22;17660;52.578;13.288;2023-02-14T06:13:12;6.90;99.90
30983;DHT22;17660;52.578;13.288;2023-02-14T06:15:39;6.80;99.90
30983;DHT22;17660;52.578;13.288;2023-02-14T06:18:05;6.80;99.90
30983;DHT22;17660;52.578;13.288;2023-02-14T06:20:32;6.90;99.90
30983;DHT22;17660;52.578;13.288;2023-02-14T06:22:59;6.90;99.90
30983;DHT22;17660;52.578;13.288;2023-02-14T06:25:27;6.90;99.90
30983;DHT22;17660;52.578;13.288;2023-02-14T06:27:57;6.90;99.90
30983;DHT22;17660;52.578;13.288;2023-02-14T06:30:25;6.90;99.90
30983;DHT22;17660;52.578;13.288;2023-02-14T06:32:52;6.90;99.90
30983;DHT22;17660;52.578;13.288;2023-02-14T06:35:19;6.90;99.90
30983;DHT22;17660;52.578;13.288;2023-02-14T06:37:46;6.90;99.90
30983;DHT22;17660;52.578;13.288;2023-02-14T06:40:13;6.80;99.90
30983;DHT22;17660;52.578;13.288;2023-02-14T06:42:40;6.80;99.90
30983;DHT22;17660;52.578;13.288;2023-02-14T06:45:07;6.80;99.90
30983;DHT22;17660;52.578;13.288;2023-02-14T06:47:34;6.80;99.90
30983;DHT22;17660;52.578;13.288;2023-02-14T06:50:02;6.80;99.90
30983;DHT22;17660;52.578;13.288;2023-02-14T06:52:31;6.90;99.90
30983;DHT22;17660;52.578;13.288;2023-02-14T06:54:58;6.90;99.90
30983;DHT22;17660;52.578;13.288;2023-02-14T06:57:25;7.00;99.90
30983;DHT22;17660;52.578;13.288;2023-02-14T06:59:51;6.90;99.90
30983;DHT22;17660;52.578;13.288;2023-02-14T07:02:18;6.90;99.90
30983;DHT22;17660;52.578;13.288;2023-02-14T07:04:46;7.00;99.90
30983;DHT22;17660;52.578;13.288;2023-02-14T07:07:13;7.00;99.90
30983;DHT22;17660;52.578;13.288;2023-02-14T07:09:40;6.90;99.90
30983;DHT22;17660;52.578;13.288;2023-02-14T07:12:15;7.00;99.90
30983;DHT22;17660;52.578;13.288;2023-02-14T07:14:44;7.00;99.90
30983;DHT22;17660;52.578;13.288;2023-02-14T07:17:11;6.90;99.90
30983;DHT22;17660;52.578;13.288;2023-02-14T07:19:38;6.90;99.90
30983;DHT22;17660;52.578;13.288;2023-02-14T07:22:04;7.00;99.90
30983;DHT22;17660;52.578;13.288;2023-02-14T07:24:31;7.00;99.90
30983;DHT22;17660;52.578;13.288;2023-02-14T07:26:58;7.10;99.90
30983;DHT22;17660;52.578;13.288;2023-02-14T07:29:24;7.10;99.90
30983;DHT22;17660;52.578;13.288;2023-02-14T07:31:51;7.10;99.90
30983;DHT22;17660;52.578;13.288;2023-02-14T07:34:18;7.00;99.90
30983;DHT22;17660;52.578;13.288;2023-02-14T07:36:45;7.00;99.90
30983;DHT22;17660;52.578;13.288;2023-02-14T07:39:12;7.10;99.90
30983;DHT22;17660;52.578;13.288;2023-02-14T07:41:39;7.10;99.90
30983;DHT22;17660;52.578;13.288;2023-02-14T07:44:05;7.20;99.90
30983;DHT22;17660;52.578;13.288;2023-02-14T07:46:32;7.30;99.90
30983;DHT22;17660;52.578;13.288;2023-02-14T07:48:59;7.30;99.90
30983;DHT22;17660;52.578;13.288;2023-02-14T07:51:26;7.40;99.90
30983;DHT22;17660;52.578;13.288;2023-02-14T07:53:52;7.40;99.90
30983;DHT22;17660;52.578;13.288;2023-02-14T07:56:19;7.50;99.90
30983;DHT22;17660;52.578;13.288;2023-02-14T07:58:46;7.60;99.90
30983;DHT22;17660;52.578;13.288;2023-02-14T08:01:15;7.60;99.90
30983;DHT22;17660;52.578;13.288;2023-02-14T08:03:42;7.60;99.90
30983;DHT22;17660;52.578;13.288;2023-02-14T08:06:11;7.60;99.90
30983;DHT22;17660;52.578;13.288;2023-02-14T08:08:38;7.70;99.90
30983;DHT22;17660;52.578;13.288;2023-02-14T08:11:05;7.80;99.90
30983;DHT22;17660;52.578;13.288;2023-02-14T08:13:31;7.80;99.90
30983;DHT22;17660;52.578;13.288;2023-02-14T08:15:58;7.90;99.90
30983;DHT22;17660;52.578;13.288;2023-02-14T08:18:39;7.90;99.90
30983;DHT22;17660;52.578;13.288;2023-02-14T08:21:08;7.80;99.90
30983;DHT22;17660;52.578;13.288;2023-02-14T08:23:36;7.80;99.90
30983;DHT22;17660;52.578;13.288;2023-02-14T08:26:03;7.80;99.90
30983;DHT22;17660;52.578;13.288;2023-02-14T08:28:30;7.80;99.90
30983;DHT22;17660;52.578;13.288;2023-02-14T08:30:59;7.80;99.90
30983;DHT22;17660;52.578;13.288;2023-02-14T08:33:26;7.90;99.90
30983;DHT22;17660;52.578;13.288;2023-02-14T08:35:53;7.80;99.90
30983;DHT22;17660;52.578;13.288;2023-02-14T08:38:20;7.80;99.90
30983;DHT22;17660;52.578;13.288;2023-02-14T08:40:47;7.90;99.90
30983;DHT22;17660;52.578;13.288;2023-02-14T08:43:14;7.90;99.90
30983;DHT22;17660;52.578;13.288;2023-02-14T08:45:40;8.00;99.90
30983;DHT22;17660;52.578;13.288;2023-02-14T08:48:10;8.10;99.90
30983;DHT22;17660;52.578;13.288;2023-02-14T08:50:37;8.10;99.90
30983;DHT22;17660;52.578;13.288;2023-02-14T08:53:08;8.00;99.90
30983;DHT22;17660;52.578;13.288;2023-02-14T08:55:36;8.10;99.90
30983;DHT22;17660;52.578;13.288;2023-02-14T08:58:03;8.10;99.90
30983;DHT22;17660;52.578;13.288;2023-02-14T09:00:31;8.20;99.90
30983;DHT22;17660;52.578;13.288;2023-02-14T09:02:58;8.30;99.90
30983;DHT22;17660;52.578;13.288;2023-02-14T09:05:26;8.30;99.90
30983;DHT22;17660;52.578;13.288;2023-02-14T09:07:53;8.30;99.90
30983;DHT22;17660;52.578;13.288;2023-02-14T09:10:23;8.10;99.90
30983;DHT22;17660;52.578;13.288;2023-02-14T09:12:50;8.20;99.90
30983;DHT22;17660;52.578;13.288;2023-02-14T09:15:17;8.20;99.90
30983;DHT22;17660;52.578;13.288;2023-02-14T09:17:44;8.10;99.80
30983;DHT22;17660;52.578;13.288;2023-02-14T09:20:14;8.00;99.90
30983;DHT22;17660;52.578;13.288;2023-02-14T09:22:41;8.10;99.90
30983;DHT22;17660;52.578;13.288;2023-02-14T09:25:08;8.20;99.90
30983;DHT22;17660;52.578;13.288;2023-02-14T09:27:35;8.30;99.90
30983;DHT22;17660;52.578;13.288;2023-02-14T09:30:02;8.40;99.90
30983;DHT22;17660;52.578;13.288;2023-02-14T09:32:31;8.40;99.70
30983;DHT22;17660;52.578;13.288;2023-02-14T09:34:58;8.40;99.50
30983;DHT22;17660;52.578;13.288;2023-02-14T09:37:25;8.40;99.90
30983;DHT22;17660;52.578;13.288;2023-02-14T09:40:16;8.40;99.70
30983;DHT22;17660;52.578;13.288;2023-02-14T09:43:03;8.40;99.70
30983;DHT22;17660;52.578;13.288;2023-02-14T09:45:33;8.40;99.80
30983;DHT22;17660;52.578;13.288;2023-02-14T09:48:05;8.50;99.60
30983;DHT22;17660;52.578;13.288;2023-02-14T09:50:50;8.50;99.70
30983;DHT22;17660;52.578;13.288;2023-02-14T09:53:26;8.40;99.70
30983;DHT22;17660;52.578;13.288;2023-02-14T10:01:33;8.40;99.60
30983;DHT22;17660;52.578;13.288;2023-02-14T10:06:53;8.60;99.30
30983;DHT22;17660;52.578;13.288;2023-02-14T10:12:27;8.70;99.20
30983;DHT22;17660;52.578;13.288;2023-02-14T10:14:57;8.70;99.20
30983;DHT22;17660;52.578;13.288;2023-02-14T10:17:34;8.70;98.90
30983;DHT22;17660;52.578;13.288;2023-02-14T10:20:05;8.70;99.00
30983;DHT22;17660;52.578;13.288;2023-02-14T10:22:55;8.70;99.00
30983;DHT22;17660;52.578;13.288;2023-02-14T10:25:27;8.70;99.40
30983;DHT22;17660;52.578;13.288;2023-02-14T10:27:57;8.60;99.50
30983;DHT22;17660;52.578;13.288;2023-02-14T10:30:24;8.70;98.90
30983;DHT22;17660;52.578;13.288;2023-02-14T10:36:00;8.70;99.70
30983;DHT22;17660;52.578;13.288;2023-02-14T10:56:03;8.80;98.90
30983;DHT22;17660;52.578;13.288;2023-02-14T10:58:34;8.90;99.10
30983;DHT22;17660;52.578;13.288;2023-02-14T11:01:14;9.00;98.70
30983;DHT22;17660;52.578;13.288;2023-02-14T11:03:59;9.00;99.00
30983;DHT22;17660;52.578;13.288;2023-02-14T11:06:30;9.10;98.80
30983;DHT22;17660;52.578;13.288;2023-02-14T11:08:57;9.20;98.60
30983;DHT22;17660;52.578;13.288;2023-02-14T11:11:37;9.20;98.90
30983;DHT22;17660;52.578;13.288;2023-02-14T11:14:31;9.20;99.30
30983;DHT22;17660;52.578;13.288;2023-02-14T11:16:59;9.20;98.60
30983;DHT22;17660;52.578;13.288;2023-02-14T11:19:31;9.10;98.60
30983;DHT22;17660;52.578;13.288;2023-02-14T11:22:02;9.20;98.20
30983;DHT22;17660;52.578;13.288;2023-02-14T11:24:34;9.20;98.40
30983;DHT22;17660;52.578;13.288;2023-02-14T11:27:05;9.30;98.50
30983;DHT22;17660;52.578;13.288;2023-02-14T11:32:26;9.20;98.60
30983;DHT22;17660;52.578;13.288;2023-02-14T11:35:03;9.20;98.40
30983;DHT22;17660;52.578;13.288;2023-02-14T11:37:35;9.20;98.20
30983;DHT22;17660;52.578;13.288;2023-02-14T11:40:04;9.20;98.50
30983;DHT22;17660;52.578;13.288;2023-02-14T11:42:39;9.20;98.10
30983;DHT22;17660;52.578;13.288;2023-02-14T11:45:30;9.30;98.20
30983;DHT22;17660;52.578;13.288;2023-02-14T11:48:22;9.30;97.80
30983;DHT22;17660;52.578;13.288;2023-02-14T11:53:52;9.30;98.10
30983;DHT22;17660;52.578;13.288;2023-02-14T11:59:12;9.20;98.60
30983;DHT22;17660;52.578;13.288;2023-02-14T12:01:45;9.20;98.50
30983;DHT22;17660;52.578;13.288;2023-02-14T12:04:20;9.10;98.20
30983;DHT22;17660;52.578;13.288;2023-02-14T12:06:48;9.10;98.10
30983;DHT22;17660;52.578;13.288;2023-02-14T12:12:03;9.20;98.10
30983;DHT22;17660;52.578;13.288;2023-02-14T12:14:34;9.20;97.90
30983;DHT22;17660;52.578;13.288;2023-02-14T12:17:28;9.30;98.00
30983;DHT22;17660;52.578;13.288;2023-02-14T12:20:18;9.40;97.90
30983;DHT22;17660;52.578;13.288;2023-02-14T12:22:57;9.40;97.90
30983;DHT22;17660;52.578;13.288;2023-02-14T12:28:44;9.30;97.80
30983;DHT22;17660;52.578;13.288;2023-02-14T12:31:11;9.40;97.50
30983;DHT22;17660;52.578;13.288;2023-02-14T12:33:39;9.40;98.10
30983;DHT22;17660;52.578;13.288;2023-02-14T12:36:32;9.40;97.70
30983;DHT22;17660;52.578;13.288;2023-02-14T12:58:02;9.70;97.20
30983;DHT22;17660;52.578;13.288;2023-02-14T13:16:56;9.20;97.70
30983;DHT22;17660;52.578;13.288;2023-02-14T13:22:19;9.10;97.80
30983;DHT22;17660;52.578;13.288;2023-02-14T13:24:50;9.30;97.70
30983;DHT22;17660;52.578;13.288;2023-02-14T13:27:22;9.30;97.90
30983;DHT22;17660;52.578;13.288;2023-02-14T13:30:16;9.40;97.80
30983;DHT22;17660;52.578;13.288;2023-02-14T13:32:45;9.50;97.80
30983;DHT22;17660;52.578;13.288;2023-02-14T13:35:18;9.50;97.10
30983;DHT22;17660;52.578;13.288;2023-02-14T13:37:55;9.40;97.20
30983;DHT22;17660;52.578;13.288;2023-02-14T13:40:25;9.30;97.50
30983;DHT22;17660;52.578;13.288;2023-02-14T13:42:56;9.00;97.90
30983;DHT22;17660;52.578;13.288;2023-02-14T13:50:38;9.00;98.40
30983;DHT22;17660;52.578;13.288;2023-02-14T13:53:12;9.10;98.20
30983;DHT22;17660;52.578;13.288;2023-02-14T13:55:50;9.00;98.30
30983;DHT22;17660;52.578;13.288;2023-02-14T13:58:21;8.90;98.20
30983;DHT22;17660;52.578;13.288;2023-02-14T14:00:51;9.00;98.20
30983;DHT22;17660;52.578;13.288;2023-02-14T14:11:02;8.70;99.00
30983;DHT22;17660;52.578;13.288;2023-02-14T14:29:34;8.50;99.00
30983;DHT22;17660;52.578;13.288;2023-02-14T14:34:52;8.50;99.10
30983;DHT22;17660;52.578;13.288;2023-02-14T14:37:22;8.60;99.10
30983;DHT22;17660;52.578;13.288;2023-02-14T14:39:55;8.60;99.00
30983;DHT22;17660;52.578;13.288;2023-02-14T14:42:24;8.50;99.10
30983;DHT22;17660;52.578;13.288;2023-02-14T14:45:04;8.50;99.10
30983;DHT22;17660;52.578;13.288;2023-02-14T14:50:06;8.50;99.30
30983;DHT22;17660;52.578;13.288;2023-02-14T14:52:40;8.50;99.30
30983;DHT22;17660;52.578;13.288;2023-02-14T14:55:19;8.50;99.20
30983;DHT22;17660;52.578;13.288;2023-02-14T14:57:57;8.50;99.10
30983;DHT22;17660;52.578;13.288;2023-02-14T15:00:32;8.50;99.20
30983;DHT22;17660;52.578;13.288;2023-02-14T15:03:06;8.50;99.40
30983;DHT22;17660;52.578;13.288;2023-02-14T15:05:39;8.50;99.30
30983;DHT22;17660;52.578;13.288;2023-02-14T15:08:32;8.50;99.40
30983;DHT22;17660;52.578;13.288;2023-02-14T15:11:26;8.60;99.30
30983;DHT22;17660;52.578;13.288;2023-02-14T15:14:17;8.40;99.40
30983;DHT22;17660;52.578;13.288;2023-02-14T15:16:59;8.40;99.40
30983;DHT22;17660;52.578;13.288;2023-02-14T15:19:41;8.30;99.60
30983;DHT22;17660;52.578;13.288;2023-02-14T15:22:39;8.20;99.70
30983;DHT22;17660;52.578;13.288;2023-02-14T15:25:16;8.20;99.90
30983;DHT22;17660;52.578;13.288;2023-02-14T15:27:44;8.10;99.80
30983;DHT22;17660;52.578;13.288;2023-02-14T15:30:30;8.20;99.90
30983;DHT22;17660;52.578;13.288;2023-02-14T15:33:05;8.20;99.90
30983;DHT22;17660;52.578;13.288;2023-02-14T15:35:35;8.10;99.80
30983;DHT22;17660;52.578;13.288;2023-02-14T15:38:04;8.10;99.90
30983;DHT22;17660;52.578;13.288;2023-02-14T15:40:33;8.10;99.90
30983;DHT22;17660;52.578;13.288;2023-02-14T15:43:38;8.10;99.80
30983;DHT22;17660;52.578;13.288;2023-02-14T15:46:23;8.20;99.90
30983;DHT22;17660;52.578;13.288;2023-02-14T15:48:56;8.10;99.90
30983;DHT22;17660;52.578;13.288;2023-02-14T15:51:27;8.10;99.90
30983;DHT22;17660;52.578;13.288;2023-02-14T15:53:58;8.10;99.80
30983;DHT22;17660;52.578;13.288;2023-02-14T15:56:29;8.00;99.90
30983;DHT22;17660;52.578;13.288;2023-02-14T15:59:05;8.00;99.90
30983;DHT22;17660;52.578;13.288;2023-02-14T16:01:33;7.90;99.90
30983;DHT22;17660;52.578;13.288;2023-02-14T16:04:03;7.80;99.90
30983;DHT22;17660;52.578;13.288;2023-02-14T16:06:39;7.80;99.90
30983;DHT22;17660;52.578;13.288;2023-02-14T16:09:27;7.80;99.90
30983;DHT22;17660;52.578;13.288;2023-02-14T16:11:54;7.80;99.90
30983;DHT22;17660;52.578;13.288;2023-02-14T16:14:36;7.80;99.90
30983;DHT22;17660;52.578;13.288;2023-02-14T16:17:11;7.80;99.90
30983;DHT22;17660;52.578;13.288;2023-02-14T16:19:40;7.80;99.90
30983;DHT22;17660;52.578;13.288;2023-02-14T16:22:23;7.70;99.90
30983;DHT22;17660;52.578;13.288;2023-02-14T16:24:51;7.60;99.90
30983;DHT22;17660;52.578;13.288;2023-02-14T16:27:17;7.60;99.90
30983;DHT22;17660;52.578;13.288;2023-02-14T16:29:44;7.60;99.90
30983;DHT22;17660;52.578;13.288;2023-02-14T16:32:17;7.60;99.90
30983;DHT22;17660;52.578;13.288;2023-02-14T16:34:44;7.60;99.90
30983;DHT22;17660;52.578;13.288;2023-02-14T16:37:33;7.50;99.90
30983;DHT22;17660;52.578;13.288;2023-02-14T16:40:00;7.40;99.90
30983;DHT22;17660;52.578;13.288;2023-02-14T16:42:27;7.30;99.90
30983;DHT22;17660;52.578;13.288;2023-02-14T16:44:54;7.30;99.90
30983;DHT22;17660;52.578;13.288;2023-02-14T16:47:21;7.20;99.90
30983;DHT22;17660;52.578;13.288;2023-02-14T16:49:48;7.30;99.90
30983;DHT22;17660;52.578;13.288;2023-02-14T16:52:18;7.30;99.90
30983;DHT22;17660;52.578;13.288;2023-02-14T16:54:49;7.40;99.90
30983;DHT22;17660;52.578;13.288;2023-02-14T16:57:26;7.40;99.90
30983;DHT22;17660;52.578;13.288;2023-02-14T16:59:54;7.40;99.90
30983;DHT22;17660;52.578;13.288;2023-02-14T17:02:21;7.40;99.90
30983;DHT22;17660;52.578;13.288;2023-02-14T17:04:48;7.40;99.90
30983;DHT22;17660;52.578;13.288;2023-02-14T17:07:15;7.40;99.90
30983;DHT22;17660;52.578;13.288;2023-02-14T17:09:45;7.40;99.90
30983;DHT22;17660;52.578;13.288;2023-02-14T17:12:19;7.40;99.90
30983;DHT22;17660;52.578;13.288;2023-02-14T17:14:50;7.40;99.90
30983;DHT22;17660;52.578;13.288;2023-02-14T17:17:19;7.20;99.90
30983;DHT22;17660;52.578;13.288;2023-02-14T17:19:46;7.20;99.90
30983;DHT22;17660;52.578;13.288;2023-02-14T17:22:13;7.20;99.90
30983;DHT22;17660;52.578;13.288;2023-02-14T17:24:40;7.20;99.90
30983;DHT22;17660;52.578;13.288;2023-02-14T17:27:07;7.30;99.90
30983;DHT22;17660;52.578;13.288;2023-02-14T17:29:35;7.10;99.90
30983;DHT22;17660;52.578;13.288;2023-02-14T17:32:02;7.20;99.90
30983;DHT22;17660;52.578;13.288;2023-02-14T17:34:32;7.20;99.90
30983;DHT22;17660;52.578;13.288;2023-02-14T17:36:59;7.10;99.90
30983;DHT22;17660;52.578;13.288;2023-02-14T17:39:26;7.10;99.90
30983;DHT22;17660;52.578;13.288;2023-02-14T17:41:53;7.00;99.90
30983;DHT22;17660;52.578;13.288;2023-02-14T17:44:22;7.10;99.90
30983;DHT22;17660;52.578;13.288;2023-02-14T17:46:48;7.00;99.90
30983;DHT22;17660;52.578;13.288;2023-02-14T17:49:15;7.00;99.90
30983;DHT22;17660;52.578;13.288;2023-02-14T17:51:42;7.00;99.90
30983;DHT22;17660;52.578;13.288;2023-02-14T17:54:09;7.00;99.90
30983;DHT22;17660;52.578;13.288;2023-02-14T17:56:35;7.00;99.90
30983;DHT22;17660;52.578;13.288;2023-02-14T17:59:02;6.90;99.90
30983;DHT22;17660;52.578;13.288;2023-02-14T18:01:29;6.80;99.90
30983;DHT22;17660;52.578;13.288;2023-02-14T18:04:01;6.80;99.90
30983;DHT22;17660;52.578;13.288;2023-02-14T18:06:28;6.90;99.90
30983;DHT22;17660;52.578;13.288;2023-02-14T18:08:55;6.80;99.90
30983;DHT22;17660;52.578;13.288;2023-02-14T18:11:26;6.80;99.90
30983;DHT22;17660;52.578;13.288;2023-02-14T18:13:54;6.70;99.90
30983;DHT22;17660;52.578;13.288;2023-02-14T18:16:22;6.70;99.90
30983;DHT22;17660;52.578;13.288;2023-02-14T18:18:50;6.80;99.90
30983;DHT22;17660;52.578;13.288;2023-02-14T18:21:18;6.80;99.90
30983;DHT22;17660;52.578;13.288;2023-02-14T18:23:46;6.80;99.90
30983;DHT22;17660;52.578;13.288;2023-02-14T18:26:15;6.80;99.90
30983;DHT22;17660;52.578;13.288;2023-02-14T18:28:43;6.80;99.90
30983;DHT22;17660;52.578;13.288;2023-02-14T18:31:16;6.90;99.90
30983;DHT22;17660;52.578;13.288;2023-02-14T18:33:45;6.80;99.90
30983;DHT22;17660;52.578;13.288;2023-02-14T18:36:13;6.70;99.90
30983;DHT22;17660;52.578;13.288;2023-02-14T18:38:42;6.70;99.90
30983;DHT22;17660;52.578;13.288;2023-02-14T18:41:13;6.70;99.90